Time;durP1;ratioP1;P1;durP2;ratioP2;P2;SDS_P1;SDS_P2;PMS_P1;PMS_P2;Temp;Humidity;BMP_temperature;BMP_pressure;BME280_temperature;BME280_humidity;BME280_pressure;Samples;Min_cycle;Max_cycle;Signal;HPM_P1;HPM_P2
2021/05/04 00:01:54;;;;;;;11.68;2.00;;;;;;;20.26;41.98;97704.50;4410310;32;20085;-74
2021/05/04 00:04:20;;;;;;;10.35;1.92;;;;;;;20.05;42.51;97696.16;4404715;32;20082;-74
2021/05/04 00:06:45;;;;;;;15.98;2.97;;;;;;;20.30;42.42;97702.75;4405934;32;20115;-74
2021/05/04 00:09:11;;;;;;;15.10;2.40;;;;;;;20.47;42.16;97693.53;4405336;32;20407;-74
2021/05/04 00:11:36;;;;;;;14.10;2.25;;;;;;;20.90;41.45;97690.97;4408017;32;20425;-74
2021/05/04 00:14:03;;;;;;;14.02;3.05;;;;;;;21.03;41.20;97690.72;4406161;32;20104;-74
2021/05/04 00:16:29;;;;;;;14.95;2.40;;;;;;;21.58;40.14;97696.16;4407852;32;20038;-74
2021/05/04 00:18:55;;;;;;;7.22;1.70;;;;;;;21.38;39.87;97700.91;4405185;32;20168;-75
2021/05/04 00:21:21;;;;;;;9.20;2.00;;;;;;;21.63;39.85;97687.31;4405271;32;20099;-74
2021/05/04 00:23:47;;;;;;;10.00;2.33;;;;;;;21.53;40.05;97695.06;4403863;32;20469;-74
2021/05/04 00:26:13;;;;;;;8.45;1.42;;;;;;;21.18;40.33;97704.91;4404598;32;20107;-74
2021/05/04 00:28:39;;;;;;;10.65;2.25;;;;;;;21.11;40.75;97693.53;4407299;32;20129;-74
2021/05/04 00:31:05;;;;;;;7.75;1.40;;;;;;;21.65;39.95;97678.91;4404650;32;20136;-74
2021/05/04 00:33:31;;;;;;;6.62;1.60;;;;;;;21.28;40.48;97697.19;4406223;32;20081;-74
2021/05/04 00:35:57;;;;;;;7.93;2.20;;;;;;;20.75;41.58;97691.09;4405310;32;20414;-74
2021/05/04 00:38:24;;;;;;;5.45;2.33;;;;;;;20.36;41.42;97696.81;4404711;32;20102;-74
2021/05/04 00:40:49;;;;;;;10.23;3.15;;;;;;;21.01;40.85;97701.97;4403514;32;20086;-74
2021/05/04 00:43:16;;;;;;;5.95;2.72;;;;;;;20.35;41.77;97698.94;4404404;32;20041;-74
2021/05/04 00:45:42;;;;;;;6.32;1.95;;;;;;;20.71;41.65;97710.72;4405575;32;20247;-74
2021/05/04 00:48:08;;;;;;;9.15;1.90;;;;;;;21.30;39.82;97716.63;4404835;32;20054;-74
2021/05/04 00:50:35;;;;;;;3.58;1.30;;;;;;;21.65;39.64;97721.84;4406125;32;20404;-74
2021/05/04 00:53:01;;;;;;;5.50;1.15;;;;;;;21.40;39.79;97732.56;4405695;32;20061;-74
2021/05/04 00:55:29;;;;;;;4.32;1.30;;;;;;;21.95;38.94;97728.63;4403438;32;20068;-74
2021/05/04 00:57:57;;;;;;;3.15;1.20;;;;;;;21.46;39.23;97740.91;4405858;32;20050;-74
2021/05/04 01:00:23;;;;;;;2.47;0.60;;;;;;;21.88;38.84;97752.37;4408379;32;20111;-74
2021/05/04 01:02:50;;;;;;;2.75;0.40;;;;;;;21.39;39.62;97756.03;4402996;32;20402;-74
2021/05/04 01:05:15;;;;;;;2.80;0.30;;;;;;;20.75;39.72;97756.03;4405222;32;20099;-74
2021/05/04 01:07:41;;;;;;;2.08;0.40;;;;;;;21.06;39.09;97763.91;4405154;32;20521;-73
2021/05/04 01:10:07;;;;;;;0.80;0.20;;;;;;;20.20;39.89;97770.38;4405211;32;20085;-73
2021/05/04 01:12:33;;;;;;;2.65;0.70;;;;;;;20.58;39.61;97768.13;4403593;32;20549;-73
2021/05/04 01:14:59;;;;;;;1.48;0.65;;;;;;;20.78;39.12;97766.31;4404087;32;20030;-73
2021/05/04 01:17:25;;;;;;;3.60;0.88;;;;;;;20.37;39.93;97786.88;4406826;32;20099;-74
2021/05/04 01:19:51;;;;;;;8.10;1.37;;;;;;;20.53;40.01;97800.53;4405370;32;20050;-73
2021/05/04 01:22:17;;;;;;;6.12;1.05;;;;;;;19.64;41.47;97802.97;4406407;32;20104;-74
2021/05/04 01:24:42;;;;;;;4.10;0.95;;;;;;;20.03;41.07;97813.00;4405545;32;20081;-74
2021/05/04 01:27:08;;;;;;;5.53;0.98;;;;;;;19.79;41.26;97822.94;4404355;32;20060;-73
2021/05/04 01:29:34;;;;;;;3.47;0.98;;;;;;;20.19;40.31;97802.34;4406023;32;20034;-74
2021/05/04 01:32:00;;;;;;;5.47;1.40;;;;;;;19.52;40.88;97836.03;4401770;32;20048;-73
2021/05/04 01:34:26;;;;;;;7.00;1.35;;;;;;;19.28;40.84;97830.91;4404348;32;20100;-73
2021/05/04 01:36:51;;;;;;;8.10;1.40;;;;;;;20.45;38.97;97833.31;4404115;32;20029;-73
2021/05/04 01:39:18;;;;;;;11.05;1.60;;;;;;;19.77;39.59;97831.31;4404268;32;20050;-73
2021/05/04 01:41:44;;;;;;;8.30;1.60;;;;;;;19.56;40.40;97829.97;4403191;32;20041;-73
2021/05/04 01:44:10;;;;;;;7.85;1.75;;;;;;;19.92;39.18;97841.97;4405005;32;20456;-73
2021/05/04 01:46:37;;;;;;;6.47;1.73;;;;;;;20.01;39.30;97843.47;4405102;32;20037;-73
2021/05/04 01:49:06;;;;;;;10.55;2.15;;;;;;;19.63;39.04;97849.94;4404397;32;20181;-73
2021/05/04 01:51:32;;;;;;;9.75;2.10;;;;;;;19.17;39.63;97854.03;4403670;32;20092;-73
2021/05/04 01:53:58;;;;;;;15.27;2.58;;;;;;;19.17;39.55;97850.41;4407837;32;20049;-73
2021/05/04 01:56:25;;;;;;;10.68;2.10;;;;;;;19.02;39.44;97853.97;4403410;32;20109;-73
2021/05/04 01:58:50;;;;;;;11.85;2.72;;;;;;;19.87;38.68;97850.69;4405287;32;21176;-74
2021/05/04 02:01:16;;;;;;;10.02;2.15;;;;;;;19.32;38.92;97861.88;4404100;32;20459;-73
2021/05/04 02:03:43;;;;;;;8.20;1.92;;;;;;;18.70;40.12;97872.84;4403585;32;20084;-73
2021/05/04 02:06:09;;;;;;;8.07;2.15;;;;;;;19.32;39.58;97887.53;4405167;32;20038;-74
2021/05/04 02:08:35;;;;;;;11.35;2.10;;;;;;;18.60;40.70;97900.34;4404480;32;20072;-74
2021/05/04 02:11:01;;;;;;;9.93;1.83;;;;;;;19.28;39.73;97896.47;4402861;32;20125;-73
2021/05/04 02:13:27;;;;;;;7.60;1.55;;;;;;;18.99;40.10;97891.41;4404509;32;20049;-74
2021/05/04 02:15:53;;;;;;;7.72;1.60;;;;;;;18.54;40.54;97896.87;4404668;32;20141;-73
2021/05/04 02:18:18;;;;;;;7.90;1.40;;;;;;;19.69;39.00;97899.03;4408061;32;20091;-73
2021/05/04 02:20:44;;;;;;;6.62;1.30;;;;;;;19.34;39.07;97904.84;4405171;32;20445;-73
2021/05/04 02:23:10;;;;;;;9.52;1.50;;;;;;;19.21;39.28;97919.97;4405299;32;20035;-73
2021/05/04 02:25:36;;;;;;;4.57;0.98;;;;;;;18.87;39.49;97935.81;4405142;32;20038;-73
2021/05/04 02:28:03;;;;;;;12.73;2.12;;;;;;;18.83;39.44;97930.47;4402521;32;20045;-73
2021/05/04 02:30:36;;;;;;;6.10;1.27;;;;;;;19.18;38.79;97948.88;4404978;32;20062;-73
2021/05/04 02:33:02;;;;;;;4.82;1.15;;;;;;;19.93;37.64;97954.78;4402688;32;20084;-73
2021/05/04 02:35:28;;;;;;;3.72;1.00;;;;;;;19.47;38.08;97933.19;4406065;32;20096;-73
2021/05/04 02:37:54;;;;;;;4.03;0.82;;;;;;;19.23;38.02;97942.22;4407779;32;20042;-73
2021/05/04 02:40:20;;;;;;;2.62;0.80;;;;;;;18.63;38.63;97971.19;4403535;32;21246;-74
2021/05/04 02:42:46;;;;;;;5.82;1.05;;;;;;;18.62;39.30;97960.38;4403175;32;20406;-73
2021/05/04 02:45:12;;;;;;;2.08;0.70;;;;;;;19.51;38.05;97976.38;4403375;32;20052;-73
2021/05/04 02:47:38;;;;;;;4.18;0.85;;;;;;;19.92;37.45;97973.25;4403688;32;20073;-73
2021/05/04 02:50:05;;;;;;;3.67;0.73;;;;;;;19.32;38.55;97976.69;4403823;32;20050;-74
2021/05/04 02:52:31;;;;;;;1.48;0.57;;;;;;;19.89;37.95;97976.47;4403128;32;20106;-73
2021/05/04 02:54:57;;;;;;;2.22;0.75;;;;;;;19.52;38.04;97989.31;4405657;32;20045;-73
2021/05/04 02:57:23;;;;;;;2.78;0.50;;;;;;;19.37;38.47;97989.25;4390397;32;20101;-73
2021/05/04 02:59:48;;;;;;;2.05;0.52;;;;;;;18.71;38.78;97985.47;4401029;32;20053;-73
2021/05/04 03:02:14;;;;;;;7.40;0.62;;;;;;;18.55;38.72;97987.47;4402579;32;20081;-73
2021/05/04 03:04:40;;;;;;;0.65;0.35;;;;;;;18.89;38.57;97982.34;4404308;32;20101;-73
2021/05/04 03:07:06;;;;;;;1.58;0.47;;;;;;;18.50;39.37;97982.66;4402707;32;20050;-73
2021/05/04 03:09:32;;;;;;;2.10;0.50;;;;;;;19.01;38.40;97971.38;4391318;32;20488;-73
2021/05/04 03:11:58;;;;;;;0.68;0.20;;;;;;;18.68;38.93;97989.47;4408307;32;20042;-74
2021/05/04 03:14:24;;;;;;;1.52;0.30;;;;;;;18.37;39.12;97996.22;4403654;32;20046;-74
2021/05/04 03:16:50;;;;;;;0.98;0.20;;;;;;;18.14;39.57;97978.19;4404687;32;20030;-74
2021/05/04 03:19:16;;;;;;;0.62;0.20;;;;;;;17.89;40.07;97980.63;4402857;32;20046;-74
2021/05/04 03:21:43;;;;;;;3.65;0.55;;;;;;;18.09;39.51;97987.63;4403580;32;20144;-74
2021/05/04 03:24:09;;;;;;;5.70;1.05;;;;;;;17.72;39.15;97989.56;4402620;32;20118;-74
2021/05/04 03:26:35;;;;;;;5.22;0.60;;;;;;;18.05;38.93;97999.38;4405614;32;21811;-74
2021/05/04 03:29:03;;;;;;;6.50;0.65;;;;;;;18.02;38.83;97977.72;4407879;32;20867;-74
2021/05/04 03:31:30;;;;;;;3.22;0.65;;;;;;;18.32;38.70;97991.44;4407992;32;20108;-74
2021/05/04 03:33:55;;;;;;;3.90;0.68;;;;;;;18.50;37.79;98001.84;4403645;32;20038;-73
2021/05/04 03:36:21;;;;;;;6.85;0.82;;;;;;;18.37;37.87;97991.31;4412575;32;20026;-74
2021/05/04 03:38:47;;;;;;;1.12;0.50;;;;;;;18.60;37.20;97991.47;4410847;32;20386;-74
2021/05/04 03:41:12;;;;;;;4.80;0.70;;;;;;;18.39;37.93;97996.44;4406562;32;20089;-74
2021/05/04 03:43:38;;;;;;;3.12;0.60;;;;;;;17.79;38.85;97999.47;4408538;32;20064;-74
2021/05/04 03:46:04;;;;;;;3.62;0.75;;;;;;;18.50;37.56;97999.00;4406185;32;20092;-73
2021/05/04 03:48:29;;;;;;;5.53;0.60;;;;;;;17.86;38.67;97993.12;4405913;32;20108;-73
2021/05/04 03:50:55;;;;;;;3.08;0.40;;;;;;;17.80;38.45;97998.91;4406088;32;20058;-74
2021/05/04 03:53:21;;;;;;;1.85;0.30;;;;;;;18.70;37.62;98001.03;4405593;32;21151;-74
2021/05/04 03:55:47;;;;;;;1.75;0.30;;;;;;;18.86;36.98;98009.13;4404318;32;20026;-74
2021/05/04 03:58:14;;;;;;;7.95;0.70;;;;;;;19.12;36.75;98014.56;4406760;32;20112;-74
2021/05/04 04:00:40;;;;;;;2.67;0.60;;;;;;;19.37;36.75;98000.66;4409122;32;20074;-74
2021/05/04 04:03:06;;;;;;;2.40;0.52;;;;;;;18.88;37.25;98006.50;4394091;32;20133;-74
2021/05/04 04:05:31;;;;;;;5.10;0.90;;;;;;;18.50;38.00;97996.91;4406780;32;20077;-73
2021/05/04 04:07:57;;;;;;;2.58;0.32;;;;;;;18.76;37.38;98010.19;4406515;32;20043;-73
2021/05/04 04:10:23;;;;;;;1.25;0.45;;;;;;;18.10;38.44;98020.47;4405484;32;20104;-73
2021/05/04 04:12:55;;;;;;;1.08;0.40;;;;;;;18.16;38.21;98015.41;4405491;32;20083;-73
2021/05/04 04:15:20;;;;;;;1.45;0.32;;;;;;;18.15;38.60;98014.63;4403814;32;20043;-73
2021/05/04 04:17:46;;;;;;;1.42;0.17;;;;;;;18.29;38.06;98030.31;4405774;32;20076;-73
2021/05/04 04:20:12;;;;;;;2.08;0.30;;;;;;;17.93;38.95;98015.19;4404040;32;20136;-73
2021/05/04 04:22:38;;;;;;;0.60;0.20;;;;;;;18.27;38.48;98023.62;4406193;32;20551;-74
2021/05/04 04:25:07;;;;;;;1.58;0.32;;;;;;;17.84;39.07;98029.88;4406201;32;20077;-73
2021/05/04 04:27:32;;;;;;;1.65;0.40;;;;;;;18.48;38.24;98030.12;4407140;32;20476;-73
2021/05/04 04:29:58;;;;;;;4.57;0.37;;;;;;;18.63;37.48;98010.31;4405282;32;20106;-74
2021/05/04 04:32:24;;;;;;;2.65;0.30;;;;;;;17.59;39.52;98020.13;4393912;32;20401;-74
2021/05/04 04:34:52;;;;;;;2.00;0.30;;;;;;;17.74;38.89;98015.34;4406626;32;20043;-74
2021/05/04 04:37:17;;;;;;;2.55;0.30;;;;;;;18.14;38.56;98018.81;4406947;32;20070;-74
2021/05/04 04:39:45;;;;;;;3.35;0.20;;;;;;;18.09;38.50;98024.63;4406624;32;20417;-74
2021/05/04 04:42:11;;;;;;;1.98;0.30;;;;;;;18.18;38.82;98010.66;4405503;32;20045;-74
2021/05/04 04:44:37;;;;;;;1.50;0.40;;;;;;;18.26;38.78;98010.75;4406572;32;20033;-74
2021/05/04 04:47:05;;;;;;;2.40;0.40;;;;;;;18.68;37.87;98010.13;4403964;32;20145;-74
2021/05/04 04:49:31;;;;;;;1.80;0.60;;;;;;;18.05;38.89;98027.03;4403716;32;20107;-74
2021/05/04 04:51:57;;;;;;;6.00;0.32;;;;;;;18.74;37.66;98033.53;4407011;32;20081;-74
2021/05/04 04:54:22;;;;;;;0.90;0.40;;;;;;;9.24;61.36;98024.16;4402523;32;20132;-74
2021/05/04 04:56:48;;;;;;;1.08;0.20;;;;;;;8.06;69.74;98017.59;4405728;32;20027;-74
2021/05/04 04:59:14;;;;;;;0.65;0.20;;;;;;;7.92;72.15;98045.62;4403116;32;20106;-75
2021/05/04 05:01:41;;;;;;;0.77;0.28;;;;;;;7.92;72.64;98043.56;4406996;32;20093;-74
2021/05/04 05:04:07;;;;;;;3.83;0.40;;;;;;;7.92;73.22;98046.38;4405488;32;20124;-74
2021/05/04 05:06:33;;;;;;;1.25;0.65;;;;;;;7.81;74.15;98046.22;4407243;32;20132;-74
2021/05/04 05:09:01;;;;;;;2.85;0.60;;;;;;;7.83;74.45;98049.28;4405859;32;20034;-74
2021/05/04 05:11:27;;;;;;;2.17;0.82;;;;;;;7.97;74.64;98058.91;4405538;32;20046;-73
2021/05/04 05:13:52;;;;;;;2.87;0.90;;;;;;;8.00;73.99;98057.94;4409179;32;20101;-73
2021/05/04 05:16:20;;;;;;;2.97;0.90;;;;;;;7.95;73.87;98067.81;4407353;32;20054;-74
2021/05/04 05:18:46;;;;;;;2.95;0.65;;;;;;;8.00;73.72;98064.34;4404163;32;20082;-74
2021/05/04 05:21:16;;;;;;;3.20;0.80;;;;;;;8.14;73.36;98076.75;4407307;32;20077;-73
2021/05/04 05:23:43;;;;;;;5.85;0.90;;;;;;;8.27;72.86;98098.88;4405432;32;20058;-73
2021/05/04 05:26:09;;;;;;;5.12;0.65;;;;;;;8.22;71.29;98083.50;4406288;32;20047;-74
2021/05/04 05:28:37;;;;;;;5.05;0.82;;;;;;;8.26;70.68;98081.31;4404895;32;20034;-73
2021/05/04 05:31:03;;;;;;;3.45;0.80;;;;;;;8.21;70.83;98084.75;4404024;32;20101;-74
2021/05/04 05:33:29;;;;;;;5.87;0.70;;;;;;;8.33;70.24;98088.50;4388088;32;20065;-75
2021/05/04 05:35:55;;;;;;;3.70;0.60;;;;;;;8.23;69.59;98106.72;4404008;32;20060;-75
2021/05/04 05:38:21;;;;;;;4.30;0.70;;;;;;;8.36;69.47;98110.75;4404336;32;20115;-76
2021/05/04 05:40:47;;;;;;;4.65;0.45;;;;;;;8.37;69.46;98115.06;4405307;32;20037;-76
2021/05/04 05:43:13;;;;;;;2.97;0.85;;;;;;;8.34;69.34;98118.09;4405784;32;20074;-74
2021/05/04 05:45:38;;;;;;;1.55;0.50;;;;;;;8.51;69.19;98102.28;4405097;32;20042;-76
2021/05/04 05:48:04;;;;;;;1.37;0.50;;;;;;;8.51;68.81;98103.06;4407506;32;20079;-74
2021/05/04 05:50:30;;;;;;;1.67;0.50;;;;;;;8.63;68.54;98104.00;4406763;32;20074;-75
2021/05/04 05:52:56;;;;;;;1.20;0.40;;;;;;;8.60;68.39;98136.56;4403931;32;20045;-76
2021/05/04 05:55:21;;;;;;;1.77;0.50;;;;;;;8.59;68.18;98151.84;4404963;32;20038;-74
2021/05/04 05:57:47;;;;;;;1.80;0.30;;;;;;;8.64;66.98;98151.16;4403586;32;20461;-76
2021/05/04 06:00:16;;;;;;;3.25;0.37;;;;;;;8.43;67.92;98154.41;4405072;32;20128;-75
2021/05/04 06:02:42;;;;;;;3.47;0.47;;;;;;;8.55;67.90;98145.66;4403730;32;20046;-74
2021/05/04 06:05:09;;;;;;;5.55;0.68;;;;;;;8.38;68.27;98146.69;4392301;32;20214;-75
2021/05/04 06:07:35;;;;;;;0.82;0.20;;;;;;;8.41;69.26;98168.91;4407907;32;20045;-76
2021/05/04 06:10:01;;;;;;;7.03;0.62;;;;;;;8.25;68.91;98183.41;4394071;32;20386;-76
2021/05/04 06:12:26;;;;;;;1.90;0.25;;;;;;;8.33;68.76;98175.38;4404238;32;20030;-76
2021/05/04 06:14:52;;;;;;;2.15;0.30;;;;;;;8.31;69.16;98172.31;4401606;32;21299;-75
2021/05/04 06:17:18;;;;;;;2.65;0.40;;;;;;;8.19;69.47;98188.88;4406240;32;20108;-77
2021/05/04 06:19:43;;;;;;;0.57;0.17;;;;;;;8.18;69.73;98169.75;4405516;32;20067;-76
2021/05/04 06:22:09;;;;;;;6.80;0.50;;;;;;;8.34;68.93;98174.88;4389514;32;20056;-75
2021/05/04 06:24:35;;;;;;;0.57;0.15;;;;;;;8.41;68.45;98182.13;4401862;32;20035;-76
2021/05/04 06:27:01;;;;;;;2.87;0.20;;;;;;;8.60;67.96;98183.44;4406599;32;20119;-74
2021/05/04 06:29:27;;;;;;;1.95;0.25;;;;;;;8.68;67.00;98193.00;4404141;32;20042;-74
2021/05/04 06:31:59;;;;;;;0.85;0.20;;;;;;;8.85;67.18;98206.00;4403230;32;20133;-77
2021/05/04 06:34:25;;;;;;;1.85;0.20;;;;;;;9.09;66.18;98233.88;4403889;32;20108;-78
2021/05/04 06:36:50;;;;;;;0.93;0.15;;;;;;;9.17;65.53;98220.97;4398515;32;20099;-76
2021/05/04 06:39:16;;;;;;;2.92;0.20;;;;;;;9.10;65.65;98222.16;4396700;32;20089;-75
2021/05/04 06:41:42;;;;;;;1.33;0.10;;;;;;;9.16;65.10;98236.25;4399425;32;20118;-77
2021/05/04 06:44:08;;;;;;;0.68;0.30;;;;;;;9.16;64.64;98253.09;4399117;32;20179;-76
2021/05/04 06:46:33;;;;;;;0.50;0.20;;;;;;;9.22;64.37;98242.72;4398820;32;20081;-77
2021/05/04 06:49:00;;;;;;;1.20;0.40;;;;;;;9.22;64.29;98246.31;4401553;32;20061;-77
2021/05/04 06:51:26;;;;;;;0.90;0.22;;;;;;;9.23;64.32;98249.88;4399619;32;20454;-78
2021/05/04 06:53:52;;;;;;;1.42;0.30;;;;;;;9.22;64.44;98262.38;4396382;32;20491;-76
2021/05/04 06:56:18;;;;;;;3.08;0.30;;;;;;;9.36;64.43;98269.97;4396102;32;20059;-75
2021/05/04 06:58:44;;;;;;;1.85;0.20;;;;;;;9.42;64.55;98257.53;4398292;32;20049;-77
2021/05/04 07:01:10;;;;;;;1.92;0.20;;;;;;;9.41;63.54;98264.44;4394820;32;20046;-75
2021/05/04 07:03:36;;;;;;;0.40;0.30;;;;;;;9.23;64.26;98284.31;4383990;32;20430;-77
2021/05/04 07:06:02;;;;;;;0.65;0.20;;;;;;;9.30;64.45;98291.56;4396808;32;20382;-75
2021/05/04 07:08:28;;;;;;;0.73;0.20;;;;;;;9.32;64.35;98294.66;4396213;32;20866;-76
2021/05/04 07:10:53;;;;;;;0.75;0.20;;;;;;;9.31;63.79;98310.72;4400591;32;20360;-76
2021/05/04 07:13:19;;;;;;;0.95;0.22;;;;;;;9.48;63.13;98308.16;4396849;32;20563;-75
2021/05/04 07:15:46;;;;;;;4.45;0.30;;;;;;;9.44;63.16;98325.19;4397697;32;20375;-76
2021/05/04 07:18:12;;;;;;;1.75;0.30;;;;;;;9.48;63.51;98316.59;4397738;32;20135;-78
2021/05/04 07:20:39;;;;;;;1.90;0.30;;;;;;;9.50;63.03;98339.31;4395084;32;20150;-75
2021/05/04 07:23:11;;;;;;;1.23;0.25;;;;;;;9.44;62.95;98344.06;4398795;32;20085;-77
2021/05/04 07:25:38;;;;;;;1.85;0.25;;;;;;;9.15;64.24;98355.37;4402526;32;20045;-75
2021/05/04 07:28:05;;;;;;;0.10;0.10;;;;;;;9.40;63.89;98368.75;4399901;32;20085;-75
2021/05/04 07:30:32;;;;;;;0.88;0.10;;;;;;;8.96;64.52;98351.25;4398114;32;20139;-76
2021/05/04 07:32:59;;;;;;;0.37;0.10;;;;;;;8.99;65.22;98370.66;4398449;32;20522;-76
2021/05/04 07:35:26;;;;;;;3.97;0.32;;;;;;;8.79;66.73;98369.81;4398966;32;20128;-76
2021/05/04 07:37:52;;;;;;;1.33;0.22;;;;;;;8.80;67.46;98382.59;4397441;32;20474;-77
2021/05/04 07:40:18;;;;;;;0.52;0.17;;;;;;;8.67;67.87;98384.87;4394857;32;20041;-76
2021/05/04 07:42:44;;;;;;;0.40;0.10;;;;;;;8.55;68.20;98406.31;4398928;32;20132;-75
2021/05/04 07:45:10;;;;;;;0.98;0.30;;;;;;;8.47;68.82;98412.78;4398506;32;20046;-76
2021/05/04 07:47:37;;;;;;;1.12;0.20;;;;;;;8.45;69.35;98415.28;4399995;32;20133;-76
2021/05/04 07:50:04;;;;;;;1.10;0.30;;;;;;;8.48;69.02;98420.72;4399049;32;20176;-76
2021/05/04 07:52:30;;;;;;;0.43;0.20;;;;;;;8.52;69.86;98428.94;4398392;32;20087;-75
2021/05/04 07:54:56;;;;;;;2.90;0.20;;;;;;;8.61;70.93;98426.03;4399415;32;20168;-76
2021/05/04 07:57:22;;;;;;;0.77;0.30;;;;;;;8.58;69.96;98427.78;4399250;32;20111;-75
2021/05/04 07:59:51;;;;;;;1.55;0.30;;;;;;;8.82;71.15;98442.53;4401916;32;20034;-74
2021/05/04 08:02:17;;;;;;;0.70;0.35;;;;;;;8.86;70.24;98450.72;4401188;32;20045;-75
2021/05/04 08:04:42;;;;;;;1.75;0.40;;;;;;;8.64;69.10;98479.13;4392793;32;20531;-75
2021/05/04 08:07:08;;;;;;;1.87;0.40;;;;;;;8.49;71.19;98467.09;4398256;32;20108;-75
2021/05/04 08:09:35;;;;;;;1.12;0.20;;;;;;;8.60;71.30;98481.34;4401616;32;20100;-75
2021/05/04 08:12:02;;;;;;;0.95;0.17;;;;;;;8.68;71.01;98484.56;4396560;32;20912;-75
2021/05/04 08:14:28;;;;;;;2.45;0.20;;;;;;;8.72;70.64;98494.34;4398427;32;20073;-73
2021/05/04 08:16:55;;;;;;;1.50;0.43;;;;;;;8.60;70.82;98506.59;4399928;32;20089;-73
2021/05/04 08:19:21;;;;;;;3.40;0.62;;;;;;;8.52;70.95;98511.00;4397554;32;20385;-73
2021/05/04 08:21:47;;;;;;;4.32;0.40;;;;;;;8.58;71.25;98516.69;4399514;32;20169;-74
2021/05/04 08:24:13;;;;;;;1.37;0.25;;;;;;;8.57;71.44;98520.78;4397783;32;20081;-73
2021/05/04 08:26:39;;;;;;;1.67;0.20;;;;;;;8.41;71.31;98529.59;4398412;32;20069;-72
2021/05/04 08:29:05;;;;;;;0.90;0.20;;;;;;;8.37;71.38;98524.16;4399076;32;20069;-75
2021/05/04 08:31:31;;;;;;;2.50;0.30;;;;;;;8.43;71.73;98533.47;4397037;32;20104;-74
2021/05/04 08:33:57;;;;;;;2.75;0.40;;;;;;;8.40;72.41;98556.84;4399114;32;20066;-75
2021/05/04 08:36:23;;;;;;;2.90;0.30;;;;;;;8.49;71.92;98548.38;4399777;32;20097;-75
2021/05/04 08:38:49;;;;;;;1.37;0.30;;;;;;;8.52;71.15;98564.25;4398863;32;20055;-74
2021/05/04 08:41:16;;;;;;;1.35;0.40;;;;;;;8.73;71.54;98563.16;4400660;32;20652;-75
2021/05/04 08:43:46;;;;;;;3.30;0.25;;;;;;;8.78;70.51;98564.53;4399766;32;20097;-75
2021/05/04 08:46:13;;;;;;;1.40;0.20;;;;;;;8.88;69.81;98577.22;4395163;32;20081;-75
2021/05/04 08:48:41;;;;;;;1.08;0.30;;;;;;;8.85;70.79;98581.78;4401506;32;20074;-75
2021/05/04 08:51:08;;;;;;;1.83;0.37;;;;;;;8.96;70.74;98587.59;4398382;32;20456;-73
2021/05/04 08:53:34;;;;;;;0.60;0.20;;;;;;;9.18;70.71;98587.28;4399394;32;20268;-73
2021/05/04 08:55:59;;;;;;;0.88;0.10;;;;;;;9.18;69.41;98596.44;4398022;32;20105;-73
2021/05/04 08:58:26;;;;;;;2.22;0.40;;;;;;;9.38;68.75;98595.81;4401860;32;20060;-74
2021/05/04 09:00:54;;;;;;;0.93;0.20;;;;;;;9.41;69.79;98620.91;4400588;32;20038;-75
2021/05/04 09:03:33;;;;;;;1.12;0.20;;;;;;;9.62;68.00;98608.53;4397225;32;20116;-74
2021/05/04 09:06:02;;;;;;;0.85;0.25;;;;;;;9.89;68.67;98618.69;4395018;32;20652;-75
2021/05/04 09:08:41;;;;;;;0.85;0.28;;;;;;;9.73;66.35;98631.19;4386422;32;20154;-74
2021/05/04 09:17:13;;;;;;;2.12;0.20;;;;;;;10.22;66.19;98663.47;3973706;32;15128641;-74
2021/05/04 09:28:09;;;;;;;1.60;0.30;;;;;;;10.67;65.06;98674.13;3972193;32;15025795;-73
2021/05/04 09:30:36;;;;;;;0.60;0.20;;;;;;;10.67;65.06;98674.13;4436344;32;20040;-75
2021/05/04 09:33:10;;;;;;;1.37;0.20;;;;;;;10.66;65.53;98672.59;4435577;32;20061;-74
2021/05/04 09:35:37;;;;;;;1.02;0.20;;;;;;;10.65;62.13;98685.88;4435225;32;20104;-74
2021/05/04 09:38:08;;;;;;;1.50;0.30;;;;;;;10.62;63.23;98694.53;4435056;32;20062;-74
2021/05/04 09:40:37;;;;;;;1.02;0.30;;;;;;;10.77;63.78;98692.47;4436693;32;20080;-75
2021/05/04 09:43:07;;;;;;;0.40;0.10;;;;;;;10.88;63.41;98710.28;4435982;32;20088;-74
2021/05/04 09:45:36;;;;;;;0.55;0.20;;;;;;;11.02;61.34;98722.75;4434540;32;20452;-74
2021/05/04 09:48:29;;;;;;;2.58;0.20;;;;;;;11.29;60.76;98722.38;4432653;32;20639;-75
2021/05/04 09:56:35;;;;;;;1.58;0.13;;;;;;;11.53;59.04;98748.25;3984200;32;15023764;-73
2021/05/04 09:59:02;;;;;;;1.12;0.20;;;;;;;11.48;61.26;98755.38;4438408;32;20377;-73
2021/05/04 10:01:28;;;;;;;0.50;0.22;;;;;;;11.40;59.81;98759.09;4429026;32;20489;-75
2021/05/04 10:03:54;;;;;;;0.98;0.30;;;;;;;11.58;60.82;98764.47;4418566;32;20064;-73
2021/05/04 10:06:21;;;;;;;0.40;0.10;;;;;;;11.83;61.53;98764.56;4417554;32;20089;-73
2021/05/04 10:08:49;;;;;;;1.08;0.30;;;;;;;11.99;59.74;98780.09;4418253;32;20134;-74
2021/05/04 10:13:53;;;;;;;6.32;0.20;;;;;;;11.81;59.20;98775.56;3978939;32;15025703;-74
2021/05/04 10:16:28;;;;;;;0.60;0.10;;;;;;;11.91;58.27;98782.59;4430926;32;20586;-74
2021/05/04 10:18:59;;;;;;;0.20;0.20;;;;;;;11.42;59.39;98796.78;4430604;32;20095;-72
2021/05/04 10:21:25;;;;;;;1.02;0.10;;;;;;;11.32;59.95;98792.53;4426431;32;20067;-72
2021/05/04 10:23:51;;;;;;;2.28;0.40;;;;;;;11.26;61.33;98791.69;4427522;32;20053;-72
2021/05/04 10:26:19;;;;;;;0.73;0.20;;;;;;;11.21;60.97;98808.50;4432043;32;20041;-72
2021/05/04 10:28:51;;;;;;;2.10;0.30;;;;;;;11.25;62.09;98809.06;4432688;32;20102;-73
2021/05/04 10:31:19;;;;;;;1.40;0.50;;;;;;;11.29;61.63;98804.78;4431376;32;20051;-72
2021/05/04 10:33:45;;;;;;;3.28;0.62;;;;;;;11.35;62.30;98811.28;4427738;32;20769;-73
2021/05/04 10:36:32;;;;;;;1.45;0.80;;;;;;;11.81;60.69;98823.47;4432891;32;20111;-73
2021/05/04 10:38:59;;;;;;;0.80;0.50;;;;;;;11.94;59.74;98829.50;4429322;32;20589;-73
2021/05/04 10:41:26;;;;;;;0.80;0.30;;;;;;;11.63;59.42;98839.88;4430263;32;20413;-74
2021/05/04 10:49:52;;;;;;;1.10;0.40;;;;;;;12.21;58.85;98858.56;3979287;32;15022282;-74
2021/05/04 10:58:30;;;;;;;0.23;0.10;;;;;;;12.97;54.58;98869.84;3994934;31;15015344;-75
2021/05/04 11:01:02;;;;;;;0.43;0.20;;;;;;;13.26;54.41;98886.56;4449438;32;20523;-75
2021/05/04 11:27:18;;;;;;;0.60;0.20;;;;;;;15.39;47.91;98943.91;3977924;32;15021771;-75
2021/05/04 11:29:47;;;;;;;0.55;0.30;;;;;;;15.39;47.91;98943.91;4430328;32;20099;-76
2021/05/04 11:40:07;;;;;;;0.50;0.15;;;;;;;15.83;46.58;98949.53;3992321;31;15014039;-76
2021/05/04 11:45:29;;;;;;;1.52;0.40;;;;;;;15.72;45.75;98948.78;3981567;32;15027579;-76
2021/05/04 11:48:07;;;;;;;0.75;0.28;;;;;;;16.17;44.58;98953.09;4447152;32;20028;-75
2021/05/04 11:50:35;;;;;;;2.67;0.20;;;;;;;16.52;45.19;98963.84;4442453;32;20086;-74
2021/05/04 11:53:04;;;;;;;0.43;0.20;;;;;;;16.75;43.68;98966.06;4443299;32;20389;-75
2021/05/04 11:55:32;;;;;;;0.50;0.30;;;;;;;16.90;42.27;98975.03;4444422;32;20610;-75
2021/05/04 12:00:38;;;;;;;1.73;0.30;;;;;;;17.57;40.81;98990.44;3982935;31;15016252;-75
2021/05/04 12:03:06;;;;;;;2.05;0.60;;;;;;;17.57;40.81;98990.44;4443034;32;20488;-75
2021/05/04 12:05:32;;;;;;;2.42;0.40;;;;;;;17.46;42.26;98976.28;4443596;32;20057;-75
2021/05/04 12:07:59;;;;;;;1.15;0.30;;;;;;;17.35;40.82;98986.94;4443321;32;20069;-75
2021/05/04 12:15:43;;;;;;;7.00;0.40;;;;;;;16.22;44.36;98997.72;3972043;32;15027676;-75
2021/05/04 12:18:17;;;;;;;3.70;0.40;;;;;;;16.22;44.36;98997.72;4420131;32;20073;-75
2021/05/04 12:31:18;;;;;;;1.73;0.37;;;;;;;16.87;41.72;99013.03;3966368;32;15015014;-76
2021/05/04 12:33:47;;;;;;;3.33;0.30;;;;;;;16.87;41.72;99013.03;4414976;32;20578;-75
2021/05/04 12:36:18;;;;;;;0.50;0.25;;;;;;;16.46;42.19;99012.16;4412803;32;20122;-75
2021/05/04 12:41:33;;;;;;;1.50;0.30;;;;;;;15.67;44.55;99024.06;3970844;32;15045024;-76
2021/05/04 12:46:43;;;;;;;1.00;0.30;;;;;;;16.02;43.82;99028.44;3970122;32;15017432;-76
2021/05/04 12:49:10;;;;;;;1.85;0.90;;;;;;;16.02;43.82;99028.44;4420060;32;20079;-76
2021/05/04 12:51:39;;;;;;;3.90;0.50;;;;;;;15.29;44.07;99033.25;4418535;32;20407;-74
2021/05/04 12:56:41;;;;;;;3.03;0.30;;;;;;;15.22;44.93;99058.47;3970952;32;15040387;-75
2021/05/04 13:17:02;;;;;;;1.23;0.13;;;;;;;14.82;46.37;99081.50;4402464;32;21134;-74
2021/05/04 13:20:01;;;;;;;0.77;0.30;;;;;;;14.67;45.79;99095.81;4402012;32;20094;-74
2021/05/04 13:33:01;;;;;;;0.73;0.30;;;;;;;16.25;42.11;99104.53;3975761;32;15025534;-74
2021/05/04 13:35:30;;;;;;;1.35;0.22;;;;;;;15.33;43.90;99120.84;4426972;32;20084;-72
2021/05/04 13:38:10;;;;;;;1.33;0.28;;;;;;;15.33;44.66;99104.63;4430978;32;20080;-74